createdAt,value
2022-12-17T00:01:58.247Z,98958.91
2022-12-17T00:04:58.787Z,98959.75
2022-12-17T00:08:05.246Z,98964.25
2022-12-17T00:11:06.027Z,98964.47
2022-12-17T00:14:13.213Z,98961.16
2022-12-17T00:17:13.818Z,98969.25
2022-12-17T00:20:20.268Z,98961.34
2022-12-17T00:23:35.512Z,98971.09
2022-12-17T00:26:42.124Z,98969.94
2022-12-17T00:29:49.284Z,98979.47
2022-12-17T00:32:53.198Z,98977.84
2022-12-17T00:36:00.261Z,98984.22
2022-12-17T00:39:01.141Z,98987.03
2022-12-17T00:42:08.298Z,98985.38
2022-12-17T00:45:11.191Z,98993.22
2022-12-17T00:48:20.375Z,98995.00
2022-12-17T00:51:28.406Z,98995.00
2022-12-17T00:54:36.286Z,98997.56
2022-12-17T00:57:38.395Z,98994.25
2022-12-17T01:00:41.912Z,98994.88
2022-12-17T01:03:48.426Z,99001.06
2022-12-17T01:06:48.863Z,98997.69
2022-12-17T01:09:55.312Z,99006.97
2022-12-17T01:12:56.720Z,99012.22
2022-12-17T01:16:04.216Z,99014.84
2022-12-17T01:19:04.554Z,99014.56
2022-12-17T01:22:11.296Z,99019.56
2022-12-17T01:25:18.140Z,99012.84
2022-12-17T01:28:19.323Z,99012.00
2022-12-17T01:31:29.068Z,99007.31
2022-12-17T01:34:31.905Z,99016.13
2022-12-17T01:37:39.201Z,99015.91
2022-12-17T01:40:42.057Z,99014.56
2022-12-17T01:44:01.247Z,99023.25
2022-12-17T01:47:12.087Z,99028.63
2022-12-17T01:50:19.373Z,99032.94
2022-12-17T01:53:31.393Z,99042.28
2022-12-17T01:56:32.587Z,99042.50
2022-12-17T01:59:41.340Z,99048.56
2022-12-17T02:02:49.208Z,99051.19
2022-12-17T02:06:00.441Z,99054.88
2022-12-17T02:09:17.218Z,99056.78
2022-12-17T02:12:18.387Z,99067.13
2022-12-17T02:15:45.061Z,99078.88
2022-12-17T02:18:51.183Z,99083.50
2022-12-17T02:21:55.365Z,99089.16
2022-12-17T02:25:08.386Z,99095.16
2022-12-17T02:28:16.941Z,99093.53
2022-12-17T02:31:24.324Z,99099.59
2022-12-17T02:34:26.218Z,99106.91
2022-12-17T02:37:34.460Z,99109.72
2022-12-17T02:40:36.126Z,99116.19
2022-12-17T02:43:45.236Z,99117.59
2022-12-17T02:47:13.625Z,99119.69
2022-12-17T02:50:14.247Z,99128.13
2022-12-17T02:53:22.270Z,99138.38
2022-12-17T02:56:28.733Z,99145.31
2022-12-17T02:59:29.309Z,99145.13
2022-12-17T03:02:43.363Z,99156.97
2022-12-17T03:05:50.262Z,99154.50
2022-12-17T03:08:57.276Z,99157.31
2022-12-17T03:12:04.309Z,99164.63
2022-12-17T03:15:04.847Z,99167.53
2022-12-17T03:18:12.202Z,99172.94
2022-12-17T03:21:14.148Z,99172.75
2022-12-17T03:24:21.362Z,99170.84
2022-12-17T03:27:21.782Z,99170.09
2022-12-17T03:30:30.982Z,99179.66
2022-12-17T03:33:40.217Z,99183.94
2022-12-17T03:36:50.340Z,99181.00
2022-12-17T03:39:50.498Z,99180.63
2022-12-17T03:42:57.243Z,99184.66
2022-12-17T03:45:57.836Z,99195.44
2022-12-17T03:49:04.320Z,99194.34
2022-12-17T03:52:04.862Z,99209.38
2022-12-17T03:55:11.162Z,99207.88
2022-12-17T03:58:18.172Z,99212.91
2022-12-17T04:01:26.296Z,99217.75
2022-12-17T04:04:39.397Z,99228.41
2022-12-17T04:07:46.191Z,99221.31
2022-12-17T04:10:46.180Z,99217.81
2022-12-17T04:13:54.242Z,99223.25
2022-12-17T04:16:55.141Z,99222.47
2022-12-17T04:19:55.700Z,99223.00
2022-12-17T04:23:02.205Z,99218.91
2022-12-17T04:26:08.965Z,99228.97
2022-12-17T04:29:10.351Z,99233.66
2022-12-17T04:32:17.207Z,99223.53
2022-12-17T04:35:18.302Z,99227.38
2022-12-17T04:38:18.921Z,99227.38
2022-12-17T04:41:25.349Z,99228.75
2022-12-17T04:44:31.770Z,99234.75
2022-12-17T04:47:32.220Z,99233.13
2022-12-17T04:50:32.579Z,99242.84
2022-12-17T04:53:39.440Z,99245.06
2022-12-17T04:56:40.307Z,99243.41
2022-12-17T04:59:47.325Z,99236.91
2022-12-17T05:02:47.646Z,99242.63
2022-12-17T05:05:57.279Z,99243.19
2022-12-17T05:09:04.095Z,99254.31
2022-12-17T05:12:05.331Z,99254.25
2022-12-17T05:15:11.865Z,99240.00
2022-12-17T05:18:12.217Z,99239.25
2022-12-17T05:21:19.321Z,99244.50
2022-12-17T05:24:19.949Z,99230.06
2022-12-17T05:27:26.352Z,99241.22
2022-12-17T05:30:40.220Z,99237.13
2022-12-17T05:33:47.360Z,99233.28
2022-12-17T05:36:47.854Z,99226.09
2022-12-17T05:39:54.358Z,99224.28
2022-12-17T05:42:58.012Z,99214.50
2022-12-17T05:46:06.381Z,99221.38
2022-12-17T05:49:07.966Z,99219.97
2022-12-17T05:52:15.156Z,99210.84
2022-12-17T05:55:15.689Z,99201.69
2022-12-17T05:58:48.357Z,99201.88
2022-12-17T06:01:49.084Z,99194.75
2022-12-17T06:05:01.814Z,99195.66
2022-12-17T06:08:03.176Z,99197.56
2022-12-17T06:11:12.251Z,99194.53
2022-12-17T06:14:14.612Z,99188.22
2022-12-17T06:17:22.586Z,99180.41
2022-12-17T06:20:22.720Z,99171.19
2022-12-17T06:23:32.185Z,99173.38
2022-12-17T06:26:33.062Z,99174.69
2022-12-17T06:29:51.176Z,99161.94
2022-12-17T06:32:58.025Z,99158.50
2022-12-17T06:35:59.317Z,99157.03
2022-12-17T06:39:06.205Z,99149.13
2022-12-17T06:42:07.288Z,99150.81
2022-12-17T06:45:17.379Z,99152.56
2022-12-17T06:48:18.273Z,99146.63
2022-12-17T06:51:25.189Z,99143.81
2022-12-17T06:54:32.143Z,99141.75
2022-12-17T06:57:41.280Z,99134.00
2022-12-17T07:00:44.333Z,99130.28
2022-12-17T07:03:44.718Z,99126.44
2022-12-17T07:06:51.320Z,99128.00
2022-12-17T07:10:09.334Z,99121.75
2022-12-17T07:13:20.009Z,99118.06
2022-12-17T07:16:21.291Z,99116.53
2022-12-17T07:19:26.795Z,99115.72
2022-12-17T07:22:34.172Z,99113.31
2022-12-17T07:25:46.007Z,99109.19
2022-12-17T07:28:47.366Z,99114.19
2022-12-17T07:31:54.266Z,99103.38
2022-12-17T07:34:55.313Z,99109.56
2022-12-17T07:37:55.609Z,99106.25
2022-12-17T07:41:02.311Z,99093.13
2022-12-17T07:44:08.909Z,99092.31
2022-12-17T07:47:09.354Z,99088.94
2022-12-17T07:50:09.764Z,99083.16
2022-12-17T07:53:16.223Z,99074.38
2022-12-17T07:56:22.810Z,99066.56
2022-12-17T07:59:23.300Z,99070.59
2022-12-17T08:02:23.720Z,99058.50
2022-12-17T08:05:30.277Z,99065.44
2022-12-17T08:08:39.781Z,99056.75
2022-12-17T08:11:40.166Z,99050.47
2022-12-17T08:14:47.673Z,99048.81
2022-12-17T08:17:48.078Z,99045.72
2022-12-17T08:20:55.352Z,99052.88
2022-12-17T08:23:55.777Z,99050.56
2022-12-17T08:27:02.416Z,99049.09
2022-12-17T08:30:03.136Z,99043.91
2022-12-17T08:33:10.402Z,99036.22
2022-12-17T08:36:20.976Z,99035.31
2022-12-17T08:39:28.307Z,99024.88
2022-12-17T08:42:36.160Z,99025.25
2022-12-17T08:45:43.281Z,99023.09
2022-12-17T08:48:51.169Z,99020.75
2022-12-17T08:51:58.353Z,99016.72
2022-12-17T08:54:59.345Z,99025.25
2022-12-17T08:58:06.249Z,99022.78
2022-12-17T09:01:08.083Z,99015.53
2022-12-17T09:04:15.196Z,99013.97
2022-12-17T09:07:16.267Z,99015.16
2022-12-17T09:10:23.233Z,99016.06
2022-12-17T09:13:28.407Z,99021.59
2022-12-17T09:16:36.313Z,99017.44
2022-12-17T09:19:44.386Z,99019.31
2022-12-17T09:22:44.432Z,99029.84
2022-12-17T09:25:55.048Z,99027.31
2022-12-17T09:28:58.682Z,99016.50
2022-12-17T09:32:06.289Z,99015.63
2022-12-17T09:35:13.152Z,99003.44
2022-12-17T09:38:30.321Z,99006.47
2022-12-17T09:42:09.872Z,99011.09
2022-12-17T09:45:57.400Z,99009.63
2022-12-17T09:49:02.915Z,99009.09
2022-12-17T09:52:11.190Z,99014.78
2022-12-17T09:55:26.260Z,99014.00
2022-12-17T09:58:28.792Z,99023.13
2022-12-17T10:01:51.439Z,99022.03
2022-12-17T10:05:12.244Z,99014.84
2022-12-17T10:08:20.385Z,99017.38
2022-12-17T10:11:21.846Z,99015.59
2022-12-17T10:14:31.289Z,99015.75
2022-12-17T10:17:36.924Z,99012.84
2022-12-17T10:21:04.763Z,99011.66
2022-12-17T10:24:04.779Z,99013.44
2022-12-17T10:27:15.318Z,99020.94
2022-12-17T10:30:15.814Z,99013.66
2022-12-17T10:33:22.313Z,99011.97
2022-12-17T10:36:22.886Z,99013.91
2022-12-17T10:39:30.276Z,99014.75
2022-12-17T10:42:47.207Z,99008.59
2022-12-17T10:46:00.372Z,99015.00
2022-12-17T10:49:01.157Z,99004.16
2022-12-17T10:52:08.281Z,99008.03
2022-12-17T10:55:08.931Z,99004.22
2022-12-17T10:58:18.188Z,99003.59
2022-12-17T11:01:27.093Z,99014.06
2022-12-17T11:04:49.311Z,99008.22
2022-12-17T11:08:06.995Z,99003.56
2022-12-17T11:11:15.164Z,99011.13
2022-12-17T11:14:28.264Z,98997.28
2022-12-17T11:17:44.228Z,99004.16
2022-12-17T11:20:55.226Z,99003.19
2022-12-17T11:24:07.889Z,99000.22
2022-12-17T11:27:22.159Z,98999.00
2022-12-17T11:30:48.309Z,99000.47
2022-12-17T11:34:10.880Z,98996.97
2022-12-17T11:37:22.266Z,98998.34
2022-12-17T11:40:47.721Z,98997.06
2022-12-17T11:44:13.289Z,98991.97
2022-12-17T11:47:29.549Z,98989.00
2022-12-17T11:50:54.121Z,99003.22
2022-12-17T11:54:11.940Z,98993.94
2022-12-17T11:57:22.412Z,98997.84
2022-12-17T12:00:41.762Z,99002.22
2022-12-17T12:04:17.304Z,99001.69
2022-12-17T12:07:37.602Z,99002.78
2022-12-17T12:11:08.254Z,99004.69
2022-12-17T12:14:31.757Z,99009.84
2022-12-17T12:17:43.224Z,99015.28
2022-12-17T12:21:14.258Z,99015.25
2022-12-17T12:24:54.838Z,99016.31
2022-12-17T12:28:17.607Z,99013.59
2022-12-17T12:31:23.930Z,99025.56
2022-12-17T12:34:35.377Z,99015.47
2022-12-17T12:37:38.299Z,99018.72
2022-12-17T12:40:55.270Z,99020.06
2022-12-17T12:44:07.168Z,99018.31
2022-12-17T12:47:43.251Z,99026.19
2022-12-17T12:51:01.169Z,99024.22
2022-12-17T12:54:08.178Z,99019.84
2022-12-17T12:57:15.768Z,99018.44
2022-12-17T13:00:16.228Z,99029.25
2022-12-17T13:03:31.136Z,99025.06
2022-12-17T13:06:21.227Z,99025.06
2022-12-17T13:09:34.548Z,99028.81
2022-12-17T13:12:32.673Z,99031.50
2022-12-17T13:15:35.251Z,99035.28
2022-12-17T13:18:33.648Z,99043.19
2022-12-17T13:21:25.283Z,99038.31
2022-12-17T13:24:18.593Z,99039.50
2022-12-17T13:27:07.130Z,99047.94
2022-12-17T13:29:49.526Z,99040.75
2022-12-17T13:32:47.225Z,99052.44
2022-12-17T13:36:01.554Z,99052.13
2022-12-17T13:39:08.186Z,99055.72
2022-12-17T13:41:51.602Z,99058.78
2022-12-17T13:44:49.139Z,99066.44
2022-12-17T13:47:34.685Z,99069.34
2022-12-17T13:50:36.788Z,99070.44
2022-12-17T13:53:23.700Z,99069.34
2022-12-17T13:56:12.170Z,99066.94
2022-12-17T13:59:06.203Z,99070.59
2022-12-17T14:01:56.328Z,99071.38
2022-12-17T14:04:39.619Z,99079.31
2022-12-17T14:07:28.189Z,99074.91
2022-12-17T14:10:25.508Z,99083.06
2022-12-17T14:13:24.250Z,99077.06
2022-12-17T14:16:13.583Z,99080.50
2022-12-17T14:19:05.255Z,99076.44
2022-12-17T14:21:47.749Z,99073.16
2022-12-17T14:24:40.338Z,99073.63
2022-12-17T14:27:39.474Z,99073.56
2022-12-17T14:30:30.283Z,99074.41
2022-12-17T14:33:37.895Z,99074.41
2022-12-17T14:36:34.236Z,99081.16
2022-12-17T14:39:40.111Z,99078.88
2022-12-17T14:42:40.129Z,99082.09
2022-12-17T14:45:32.598Z,99080.66
2022-12-17T14:48:23.235Z,99082.19
2022-12-17T14:51:05.483Z,99082.63
2022-12-17T14:53:54.276Z,99088.47
2022-12-17T14:56:36.546Z,99096.44
2022-12-17T14:59:49.167Z,99096.19
2022-12-17T15:02:39.536Z,99098.59
2022-12-17T15:05:24.182Z,99106.00
2022-12-17T15:08:14.224Z,99112.66
2022-12-17T15:11:06.183Z,99120.44
2022-12-17T15:13:56.738Z,99123.03
2022-12-17T15:16:39.649Z,99128.56
2022-12-17T15:19:28.197Z,99130.84
2022-12-17T15:22:19.295Z,99134.56
2022-12-17T15:25:01.547Z,99139.16
2022-12-17T15:27:50.240Z,99143.50
2022-12-17T15:30:38.662Z,99145.09
2022-12-17T15:33:27.290Z,99146.22
2022-12-17T15:36:09.541Z,99148.94
2022-12-17T15:38:58.307Z,99148.69
2022-12-17T15:41:58.901Z,99154.59
2022-12-17T15:44:48.304Z,99150.03
2022-12-17T15:47:30.547Z,99158.06
2022-12-17T15:50:19.277Z,99158.22
2022-12-17T15:53:01.602Z,99162.91
2022-12-17T15:55:50.251Z,99163.53
2022-12-17T15:58:32.542Z,99169.41
2022-12-17T16:01:21.272Z,99172.75
2022-12-17T16:04:16.813Z,99175.56
2022-12-17T16:07:08.258Z,99172.72
2022-12-17T16:09:50.517Z,99168.09
2022-12-17T16:12:39.237Z,99170.22
2022-12-17T16:15:29.326Z,99174.75
2022-12-17T16:18:18.787Z,99175.06
2022-12-17T16:21:01.249Z,99172.91
2022-12-17T16:23:50.714Z,99164.88
2022-12-17T16:26:32.182Z,99166.75
2022-12-17T16:29:20.525Z,99158.16
2022-12-17T16:32:16.278Z,99163.22
2022-12-17T16:34:58.470Z,99157.28
2022-12-17T16:37:47.369Z,99167.78
2022-12-17T16:40:35.501Z,99168.13
2022-12-17T16:43:18.267Z,99177.94
2022-12-17T16:46:00.527Z,99181.22
2022-12-17T16:48:53.302Z,99183.94
2022-12-17T16:51:42.556Z,99191.59
2022-12-17T16:54:27.254Z,99179.88
2022-12-17T16:57:15.554Z,99191.88
2022-12-17T16:59:58.280Z,99185.84
2022-12-17T17:02:52.792Z,99180.78
2022-12-17T17:05:39.232Z,99178.34
2022-12-17T17:08:29.117Z,99181.63
2022-12-17T17:11:24.545Z,99185.84
2022-12-17T17:14:14.092Z,99176.00
2022-12-17T17:16:56.475Z,99174.94
2022-12-17T17:19:45.271Z,99176.78
2022-12-17T17:22:27.689Z,99182.59
2022-12-17T17:25:16.675Z,99177.00
2022-12-17T17:27:58.523Z,99175.03
2022-12-17T17:30:47.215Z,99169.50
2022-12-17T17:33:40.801Z,99166.00
2022-12-17T17:36:31.226Z,99162.63
2022-12-17T17:39:19.535Z,99166.41
2022-12-17T17:42:01.266Z,99169.84
2022-12-17T17:44:50.018Z,99162.63
2022-12-17T17:47:33.285Z,99155.50
2022-12-17T17:50:15.397Z,99145.53
2022-12-17T17:53:04.229Z,99140.13
2022-12-17T17:55:53.225Z,99139.69
2022-12-17T17:58:35.705Z,99143.34
2022-12-17T18:01:37.282Z,99145.25
2022-12-17T18:04:29.224Z,99134.19
2022-12-17T18:07:26.602Z,99148.53
2022-12-17T18:10:10.011Z,99142.28
2022-12-17T18:13:17.141Z,99149.56
2022-12-17T18:16:06.290Z,99150.53
2022-12-17T18:18:56.063Z,99155.13
2022-12-17T18:21:41.176Z,99145.69
2022-12-17T18:24:24.495Z,99151.38
2022-12-17T18:27:13.094Z,99150.50
2022-12-17T18:30:02.143Z,99157.34
2022-12-17T18:32:58.128Z,99147.94
2022-12-17T18:35:40.495Z,99136.75
2022-12-17T18:38:29.253Z,99131.13
2022-12-17T18:41:46.097Z,99133.69
2022-12-17T18:44:36.323Z,99129.38
2022-12-17T18:47:26.445Z,99141.47
2022-12-17T18:50:08.266Z,99141.00
2022-12-17T18:53:12.065Z,99137.13
2022-12-17T18:56:01.167Z,99130.41
2022-12-17T18:58:50.244Z,99131.13
2022-12-17T19:01:35.811Z,99135.25
2022-12-17T19:04:28.144Z,99130.06
2022-12-17T19:07:17.556Z,99133.94
2022-12-17T19:10:00.117Z,99135.47
2022-12-17T19:12:48.535Z,99136.41
2022-12-17T19:15:31.282Z,99133.44
2022-12-17T19:18:20.601Z,99146.28
2022-12-17T19:21:08.186Z,99135.47
2022-12-17T19:23:58.754Z,99144.41
2022-12-17T19:26:41.169Z,99122.19
2022-12-17T19:29:30.540Z,99127.47
2022-12-17T19:32:13.484Z,99129.56
2022-12-17T19:34:55.575Z,99137.22
2022-12-17T19:37:44.273Z,99134.16
2022-12-17T19:40:32.490Z,99130.72
2022-12-17T19:43:15.243Z,99144.63
2022-12-17T19:46:04.174Z,99137.00
2022-12-17T19:48:57.348Z,99136.00
2022-12-17T19:51:45.526Z,99144.09
2022-12-17T19:54:27.217Z,99141.41
2022-12-17T19:57:15.491Z,99149.09
2022-12-17T19:59:57.225Z,99147.66
2022-12-17T20:02:48.406Z,99147.31
2022-12-17T20:05:37.142Z,99147.88
2022-12-17T20:08:22.465Z,99147.38
2022-12-17T20:11:12.175Z,99148.59
2022-12-17T20:14:03.237Z,99143.00
2022-12-17T20:16:48.561Z,99141.31
2022-12-17T20:19:42.137Z,99144.16
2022-12-17T20:22:24.611Z,99142.84
2022-12-17T20:25:17.154Z,99138.75
2022-12-17T20:27:59.567Z,99148.84
2022-12-17T20:30:49.144Z,99148.28
2022-12-17T20:33:38.107Z,99145.78
2022-12-17T20:36:22.173Z,99154.69
2022-12-17T20:39:11.189Z,99150.97
2022-12-17T20:41:53.342Z,99160.03
2022-12-17T20:44:42.117Z,99154.69
2022-12-17T20:47:31.239Z,99158.72
2022-12-17T20:50:13.564Z,99166.31
2022-12-17T20:53:02.197Z,99166.19
2022-12-17T20:55:44.509Z,99163.34
2022-12-17T20:58:33.244Z,99157.22
2022-12-17T21:01:26.293Z,99154.53
2022-12-17T21:04:14.570Z,99154.91
2022-12-17T21:06:57.228Z,99154.31
2022-12-17T21:09:39.491Z,99162.84
2022-12-17T21:12:28.187Z,99158.25
2022-12-17T21:15:17.564Z,99160.47
2022-12-17T21:18:00.181Z,99147.94
2022-12-17T21:20:43.892Z,99148.78
2022-12-17T21:23:33.295Z,99146.03
2022-12-17T21:26:30.277Z,99141.91
2022-12-17T21:29:15.059Z,99135.31
2022-12-17T21:32:11.203Z,99137.47
2022-12-17T21:34:59.539Z,99137.50
2022-12-17T21:37:41.198Z,99136.88
2022-12-17T21:40:29.739Z,99129.81
2022-12-17T21:43:11.189Z,99129.66
2022-12-17T21:46:04.652Z,99121.56
2022-12-17T21:48:49.574Z,99122.16
2022-12-17T21:51:39.439Z,99125.00
2022-12-17T21:54:21.104Z,99123.03
2022-12-17T21:57:10.278Z,99126.78
2022-12-17T21:59:52.495Z,99127.97
2022-12-17T22:02:42.362Z,99117.06
2022-12-17T22:05:24.514Z,99120.31
2022-12-17T22:08:13.233Z,99115.09
2022-12-17T22:10:55.454Z,99116.31
2022-12-17T22:14:08.030Z,99111.44
2022-12-17T22:17:01.097Z,99110.66
2022-12-17T22:19:50.187Z,99108.41
2022-12-17T22:22:39.090Z,99107.03
2022-12-17T22:25:28.116Z,99108.88
2022-12-17T22:28:17.146Z,99108.66
2022-12-17T22:31:29.892Z,99106.28
2022-12-17T22:34:59.333Z,99107.75
2022-12-17T22:41:00.392Z,99113.53
2022-12-17T22:44:30.302Z,99106.75
2022-12-17T22:44:51.860Z,99107.56
2022-12-17T22:46:43.218Z,99103.28
2022-12-17T22:49:27.512Z,99095.50
2022-12-17T22:52:16.523Z,99101.13
2022-12-17T22:55:00.491Z,99098.63
2022-12-17T22:57:49.238Z,99102.72
2022-12-17T23:00:34.484Z,99099.22
2022-12-17T23:03:23.269Z,99097.19
2022-12-17T23:06:23.546Z,99089.97
2022-12-17T23:09:12.221Z,99089.53
2022-12-17T23:11:56.500Z,99085.34
2022-12-17T23:14:45.255Z,99085.34
2022-12-17T23:17:27.425Z,99084.47
2022-12-17T23:20:17.180Z,99082.13
2022-12-17T23:22:59.469Z,99087.00
2022-12-17T23:25:49.171Z,99093.22
2022-12-17T23:28:31.511Z,99083.25
2022-12-17T23:31:27.235Z,99087.88
2022-12-17T23:34:16.454Z,99091.16
2022-12-17T23:36:58.151Z,99090.94
2022-12-17T23:39:47.148Z,99092.94
2022-12-17T23:42:36.011Z,99092.66
2022-12-17T23:45:25.453Z,99094.13
2022-12-17T23:48:08.943Z,99094.78
2022-12-17T23:50:59.078Z,99102.06
2022-12-17T23:53:43.536Z,99106.28
2022-12-17T23:56:34.402Z,99110.13
2022-12-17T23:59:18.383Z,99118.44
